sensor_id;sensor_type;location;lat;lon;timestamp;temperature;humidity
69204;DHT22;56317;27.658;85.326;2022-08-06T00:01:53;20.80;99.90
69204;DHT22;56317;27.658;85.326;2022-08-06T00:04:21;20.80;99.90
69204;DHT22;56317;27.658;85.326;2022-08-06T00:06:48;20.80;99.90
69204;DHT22;56317;27.658;85.326;2022-08-06T00:09:16;20.80;99.90
69204;DHT22;56317;27.658;85.326;2022-08-06T00:11:43;20.90;99.90
69204;DHT22;56317;27.658;85.326;2022-08-06T00:14:10;20.90;99.90
69204;DHT22;56317;27.658;85.326;2022-08-06T00:16:38;20.90;99.90
69204;DHT22;56317;27.658;85.326;2022-08-06T00:19:06;21.00;99.90
69204;DHT22;56317;27.658;85.326;2022-08-06T00:21:33;21.00;99.90
69204;DHT22;56317;27.658;85.326;2022-08-06T00:24:00;21.00;99.90
69204;DHT22;56317;27.658;85.326;2022-08-06T00:26:27;21.00;99.90
69204;DHT22;56317;27.658;85.326;2022-08-06T00:28:55;21.10;99.90
69204;DHT22;56317;27.658;85.326;2022-08-06T00:31:22;21.10;99.90
69204;DHT22;56317;27.658;85.326;2022-08-06T00:33:50;21.10;99.90
69204;DHT22;56317;27.658;85.326;2022-08-06T00:36:17;21.20;99.90
69204;DHT22;56317;27.658;85.326;2022-08-06T00:38:44;21.30;99.90
69204;DHT22;56317;27.658;85.326;2022-08-06T00:41:11;21.40;99.90
69204;DHT22;56317;27.658;85.326;2022-08-06T00:43:41;21.40;99.90
69204;DHT22;56317;27.658;85.326;2022-08-06T00:46:08;21.50;99.90
69204;DHT22;56317;27.658;85.326;2022-08-06T00:48:36;21.60;99.90
69204;DHT22;56317;27.658;85.326;2022-08-06T00:51:03;21.60;99.90
69204;DHT22;56317;27.658;85.326;2022-08-06T00:53:30;21.70;99.90
69204;DHT22;56317;27.658;85.326;2022-08-06T00:55:57;21.80;99.90
69204;DHT22;56317;27.658;85.326;2022-08-06T00:58:25;21.80;99.90
69204;DHT22;56317;27.658;85.326;2022-08-06T01:00:52;22.00;99.90
69204;DHT22;56317;27.658;85.326;2022-08-06T01:03:19;22.10;99.90
69204;DHT22;56317;27.658;85.326;2022-08-06T01:05:46;22.20;99.90
69204;DHT22;56317;27.658;85.326;2022-08-06T01:08:13;22.30;99.90
69204;DHT22;56317;27.658;85.326;2022-08-06T01:10:40;22.30;99.90
69204;DHT22;56317;27.658;85.326;2022-08-06T01:13:09;22.40;99.90
69204;DHT22;56317;27.658;85.326;2022-08-06T01:15:37;22.50;99.90
69204;DHT22;56317;27.658;85.326;2022-08-06T01:18:18;22.60;99.90
69204;DHT22;56317;27.658;85.326;2022-08-06T01:29:51;23.10;99.90
69204;DHT22;56317;27.658;85.326;2022-08-06T01:32:40;23.20;99.90
69204;DHT22;56317;27.658;85.326;2022-08-06T01:35:14;23.20;99.90
69204;DHT22;56317;27.658;85.326;2022-08-06T01:37:50;23.30;99.90
69204;DHT22;56317;27.658;85.326;2022-08-06T01:40:23;23.30;99.90
69204;DHT22;56317;27.658;85.326;2022-08-06T01:42:54;23.30;99.90
69204;DHT22;56317;27.658;85.326;2022-08-06T01:45:25;23.30;99.90
69204;DHT22;56317;27.658;85.326;2022-08-06T01:47:58;23.30;99.90
69204;DHT22;56317;27.658;85.326;2022-08-06T01:50:34;23.20;99.90
69204;DHT22;56317;27.658;85.326;2022-08-06T01:53:08;23.20;99.90
69204;DHT22;56317;27.658;85.326;2022-08-06T01:55:51;23.20;99.90
69204;DHT22;56317;27.658;85.326;2022-08-06T01:58:24;23.20;99.90
69204;DHT22;56317;27.658;85.326;2022-08-06T02:00:53;23.20;99.90
69204;DHT22;56317;27.658;85.326;2022-08-06T02:03:40;23.20;99.90
69204;DHT22;56317;27.658;85.326;2022-08-06T02:06:15;23.20;99.90
69204;DHT22;56317;27.658;85.326;2022-08-06T02:08:44;23.20;99.90
69204;DHT22;56317;27.658;85.326;2022-08-06T02:11:13;23.20;99.90
69204;DHT22;56317;27.658;85.326;2022-08-06T02:13:41;23.30;99.90
69204;DHT22;56317;27.658;85.326;2022-08-06T02:16:12;23.20;99.90
69204;DHT22;56317;27.658;85.326;2022-08-06T02:18:43;23.30;99.90
69204;DHT22;56317;27.658;85.326;2022-08-06T02:21:16;23.30;99.90
69204;DHT22;56317;27.658;85.326;2022-08-06T02:23:45;23.30;99.90
69204;DHT22;56317;27.658;85.326;2022-08-06T02:26:15;23.40;99.90
69204;DHT22;56317;27.658;85.326;2022-08-06T02:28:44;23.40;99.90
69204;DHT22;56317;27.658;85.326;2022-08-06T02:31:12;23.40;99.90
69204;DHT22;56317;27.658;85.326;2022-08-06T02:33:39;23.40;99.90
69204;DHT22;56317;27.658;85.326;2022-08-06T02:36:14;23.50;99.90
69204;DHT22;56317;27.658;85.326;2022-08-06T02:38:50;23.40;99.90
69204;DHT22;56317;27.658;85.326;2022-08-06T02:44:19;23.40;99.90
69204;DHT22;56317;27.658;85.326;2022-08-06T02:46:55;23.40;99.90
69204;DHT22;56317;27.658;85.326;2022-08-06T02:49:26;23.40;99.90
69204;DHT22;56317;27.658;85.326;2022-08-06T02:52:04;23.50;99.90
69204;DHT22;56317;27.658;85.326;2022-08-06T02:57:06;23.70;99.90
69204;DHT22;56317;27.658;85.326;2022-08-06T02:59:42;24.00;99.90
69204;DHT22;56317;27.658;85.326;2022-08-06T03:02:11;24.40;99.90
69204;DHT22;56317;27.658;85.326;2022-08-06T03:04:45;24.80;99.90
69204;DHT22;56317;27.658;85.326;2022-08-06T03:07:14;25.00;99.90
69204;DHT22;56317;27.658;85.326;2022-08-06T03:09:47;25.30;99.90
69204;DHT22;56317;27.658;85.326;2022-08-06T03:12:16;25.40;99.90
69204;DHT22;56317;27.658;85.326;2022-08-06T03:14:44;25.60;99.90
69204;DHT22;56317;27.658;85.326;2022-08-06T03:17:14;25.70;99.90
69204;DHT22;56317;27.658;85.326;2022-08-06T03:19:44;25.90;99.90
69204;DHT22;56317;27.658;85.326;2022-08-06T03:22:12;25.90;99.90
69204;DHT22;56317;27.658;85.326;2022-08-06T03:24:42;26.00;99.90
69204;DHT22;56317;27.658;85.326;2022-08-06T03:27:11;26.00;99.90
69204;DHT22;56317;27.658;85.326;2022-08-06T03:29:40;25.90;99.90
69204;DHT22;56317;27.658;85.326;2022-08-06T03:32:10;26.10;99.90
69204;DHT22;56317;27.658;85.326;2022-08-06T03:34:38;26.20;99.90
69204;DHT22;56317;27.658;85.326;2022-08-06T03:37:07;26.20;99.90
69204;DHT22;56317;27.658;85.326;2022-08-06T03:39:37;26.30;99.90
69204;DHT22;56317;27.658;85.326;2022-08-06T03:42:05;26.50;99.90
69204;DHT22;56317;27.658;85.326;2022-08-06T03:44:32;26.70;99.90
69204;DHT22;56317;27.658;85.326;2022-08-06T03:47:23;27.10;99.90
69204;DHT22;56317;27.658;85.326;2022-08-06T03:49:53;27.40;99.90
69204;DHT22;56317;27.658;85.326;2022-08-06T03:52:26;27.80;99.90
69204;DHT22;56317;27.658;85.326;2022-08-06T03:54:57;28.10;99.90
69204;DHT22;56317;27.658;85.326;2022-08-06T03:57:25;28.20;99.90
69204;DHT22;56317;27.658;85.326;2022-08-06T03:59:55;28.30;99.90
69204;DHT22;56317;27.658;85.326;2022-08-06T04:02:47;28.30;99.90
69204;DHT22;56317;27.658;85.326;2022-08-06T04:05:26;28.10;99.90
69204;DHT22;56317;27.658;85.326;2022-08-06T04:08:05;28.10;99.90
69204;DHT22;56317;27.658;85.326;2022-08-06T04:10:42;28.00;99.90
69204;DHT22;56317;27.658;85.326;2022-08-06T04:13:13;27.90;99.90
69204;DHT22;56317;27.658;85.326;2022-08-06T04:15:41;27.80;99.90
69204;DHT22;56317;27.658;85.326;2022-08-06T04:18:21;27.70;99.90
69204;DHT22;56317;27.658;85.326;2022-08-06T04:20:52;27.60;99.90
69204;DHT22;56317;27.658;85.326;2022-08-06T04:23:20;27.40;99.90
69204;DHT22;56317;27.658;85.326;2022-08-06T04:25:52;27.30;99.90
69204;DHT22;56317;27.658;85.326;2022-08-06T04:28:21;27.30;99.90
69204;DHT22;56317;27.658;85.326;2022-08-06T04:30:50;27.30;99.90
69204;DHT22;56317;27.658;85.326;2022-08-06T04:33:21;27.40;99.90
69204;DHT22;56317;27.658;85.326;2022-08-06T04:35:48;27.30;99.90
69204;DHT22;56317;27.658;85.326;2022-08-06T04:38:18;27.30;99.90
69204;DHT22;56317;27.658;85.326;2022-08-06T04:40:45;27.30;99.90
69204;DHT22;56317;27.658;85.326;2022-08-06T04:43:13;27.30;99.90
69204;DHT22;56317;27.658;85.326;2022-08-06T04:45:42;27.40;99.90
69204;DHT22;56317;27.658;85.326;2022-08-06T04:48:11;27.60;99.70
69204;DHT22;56317;27.658;85.326;2022-08-06T04:50:39;27.70;99.60
69204;DHT22;56317;27.658;85.326;2022-08-06T04:53:13;27.90;99.00
69204;DHT22;56317;27.658;85.326;2022-08-06T04:55:42;28.10;98.70
69204;DHT22;56317;27.658;85.326;2022-08-06T04:58:11;28.40;98.10
69204;DHT22;56317;27.658;85.326;2022-08-06T05:00:44;28.60;97.60
69204;DHT22;56317;27.658;85.326;2022-08-06T05:03:11;29.00;97.30
69204;DHT22;56317;27.658;85.326;2022-08-06T05:05:52;29.30;95.90
69204;DHT22;56317;27.658;85.326;2022-08-06T05:08:21;29.70;95.50
69204;DHT22;56317;27.658;85.326;2022-08-06T05:11:01;30.10;94.90
69204;DHT22;56317;27.658;85.326;2022-08-06T05:13:33;30.40;95.10
69204;DHT22;56317;27.658;85.326;2022-08-06T05:16:05;30.70;94.60
69204;DHT22;56317;27.658;85.326;2022-08-06T05:18:53;30.80;94.50
69204;DHT22;56317;27.658;85.326;2022-08-06T05:21:29;31.00;93.30
69204;DHT22;56317;27.658;85.326;2022-08-06T05:23:57;31.40;92.50
69204;DHT22;56317;27.658;85.326;2022-08-06T05:26:25;31.80;91.70
69204;DHT22;56317;27.658;85.326;2022-08-06T05:28:53;32.10;90.10
69204;DHT22;56317;27.658;85.326;2022-08-06T05:31:31;32.30;87.80
69204;DHT22;56317;27.658;85.326;2022-08-06T05:34:02;32.50;86.80
69204;DHT22;56317;27.658;85.326;2022-08-06T05:36:29;32.30;85.70
69204;DHT22;56317;27.658;85.326;2022-08-06T05:38:56;32.40;85.00
69204;DHT22;56317;27.658;85.326;2022-08-06T05:41:24;32.70;82.90
69204;DHT22;56317;27.658;85.326;2022-08-06T05:43:51;32.90;82.90
69204;DHT22;56317;27.658;85.326;2022-08-06T05:46:20;33.30;82.40
69204;DHT22;56317;27.658;85.326;2022-08-06T05:49:12;33.60;80.90
69204;DHT22;56317;27.658;85.326;2022-08-06T05:55:04;34.20;78.90
69204;DHT22;56317;27.658;85.326;2022-08-06T05:57:49;34.80;78.30
69204;DHT22;56317;27.658;85.326;2022-08-06T06:00:19;35.50;75.50
69204;DHT22;56317;27.658;85.326;2022-08-06T06:02:48;35.80;73.90
69204;DHT22;56317;27.658;85.326;2022-08-06T06:05:17;36.30;73.80
69204;DHT22;56317;27.658;85.326;2022-08-06T06:07:45;36.90;73.00
69204;DHT22;56317;27.658;85.326;2022-08-06T06:10:13;37.30;70.50
69204;DHT22;56317;27.658;85.326;2022-08-06T06:12:41;37.40;65.80
69204;DHT22;56317;27.658;85.326;2022-08-06T06:15:11;37.40;67.50
69204;DHT22;56317;27.658;85.326;2022-08-06T06:20:46;37.70;68.90
69204;DHT22;56317;27.658;85.326;2022-08-06T06:26:42;38.20;66.60
69204;DHT22;56317;27.658;85.326;2022-08-06T06:35:02;39.30;62.10
69204;DHT22;56317;27.658;85.326;2022-08-06T06:37:49;39.60;60.90
69204;DHT22;56317;27.658;85.326;2022-08-06T06:40:39;39.60;58.60
69204;DHT22;56317;27.658;85.326;2022-08-06T06:43:15;39.40;56.70
69204;DHT22;56317;27.658;85.326;2022-08-06T06:51:36;39.40;55.90
69204;DHT22;56317;27.658;85.326;2022-08-06T06:54:12;40.50;54.90
69204;DHT22;56317;27.658;85.326;2022-08-06T06:56:46;42.30;54.00
69204;DHT22;56317;27.658;85.326;2022-08-06T06:59:32;44.20;52.60
69204;DHT22;56317;27.658;85.326;2022-08-06T07:02:01;45.20;49.80
69204;DHT22;56317;27.658;85.326;2022-08-06T07:04:31;45.90;48.90
69204;DHT22;56317;27.658;85.326;2022-08-06T07:06:59;45.00;48.50
69204;DHT22;56317;27.658;85.326;2022-08-06T07:09:29;43.90;47.40
69204;DHT22;56317;27.658;85.326;2022-08-06T07:11:58;44.80;47.50
69204;DHT22;56317;27.658;85.326;2022-08-06T07:14:33;45.30;47.00
69204;DHT22;56317;27.658;85.326;2022-08-06T07:17:05;43.90;46.20
69204;DHT22;56317;27.658;85.326;2022-08-06T07:19:33;42.30;47.60
69204;DHT22;56317;27.658;85.326;2022-08-06T07:22:03;41.10;50.20
69204;DHT22;56317;27.658;85.326;2022-08-06T07:24:33;40.30;52.20
69204;DHT22;56317;27.658;85.326;2022-08-06T07:27:01;39.80;52.00
69204;DHT22;56317;27.658;85.326;2022-08-06T07:29:30;41.00;52.30
69204;DHT22;56317;27.658;85.326;2022-08-06T07:31:58;42.40;50.50
69204;DHT22;56317;27.658;85.326;2022-08-06T07:34:27;44.10;49.70
69204;DHT22;56317;27.658;85.326;2022-08-06T07:36:56;44.00;48.40
69204;DHT22;56317;27.658;85.326;2022-08-06T07:39:28;43.60;49.40
69204;DHT22;56317;27.658;85.326;2022-08-06T07:41:57;45.60;47.90
69204;DHT22;56317;27.658;85.326;2022-08-06T07:44:27;48.80;44.40
69204;DHT22;56317;27.658;85.326;2022-08-06T07:46:57;51.30;40.10
69204;DHT22;56317;27.658;85.326;2022-08-06T07:49:35;52.50;38.50
69204;DHT22;56317;27.658;85.326;2022-08-06T07:52:04;52.60;36.10
69204;DHT22;56317;27.658;85.326;2022-08-06T07:54:32;53.50;36.10
69204;DHT22;56317;27.658;85.326;2022-08-06T07:57:00;54.70;34.50
69204;DHT22;56317;27.658;85.326;2022-08-06T07:59:28;55.60;33.80
69204;DHT22;56317;27.658;85.326;2022-08-06T08:01:57;56.20;33.90
69204;DHT22;56317;27.658;85.326;2022-08-06T08:04:24;57.00;33.20
69204;DHT22;56317;27.658;85.326;2022-08-06T08:07:10;57.20;32.30
69204;DHT22;56317;27.658;85.326;2022-08-06T08:09:38;57.10;32.30
69204;DHT22;56317;27.658;85.326;2022-08-06T08:12:06;56.70;31.30
69204;DHT22;56317;27.658;85.326;2022-08-06T08:14:38;56.10;31.90
69204;DHT22;56317;27.658;85.326;2022-08-06T08:17:06;54.80;31.80
69204;DHT22;56317;27.658;85.326;2022-08-06T08:19:34;52.90;34.20
69204;DHT22;56317;27.658;85.326;2022-08-06T08:22:13;52.80;34.30
69204;DHT22;56317;27.658;85.326;2022-08-06T08:24:46;51.20;34.50
69204;DHT22;56317;27.658;85.326;2022-08-06T08:27:14;50.90;35.70
69204;DHT22;56317;27.658;85.326;2022-08-06T08:29:42;50.70;35.30
69204;DHT22;56317;27.658;85.326;2022-08-06T08:32:10;49.70;35.80
69204;DHT22;56317;27.658;85.326;2022-08-06T08:34:40;47.70;36.90
69204;DHT22;56317;27.658;85.326;2022-08-06T08:37:11;47.10;38.00
69204;DHT22;56317;27.658;85.326;2022-08-06T08:39:41;48.10;38.00
69204;DHT22;56317;27.658;85.326;2022-08-06T08:42:17;50.80;37.00
69204;DHT22;56317;27.658;85.326;2022-08-06T08:44:46;51.50;34.90
69204;DHT22;56317;27.658;85.326;2022-08-06T08:47:17;50.80;34.90
69204;DHT22;56317;27.658;85.326;2022-08-06T08:49:54;49.20;35.30
69204;DHT22;56317;27.658;85.326;2022-08-06T08:52:35;47.80;36.80
69204;DHT22;56317;27.658;85.326;2022-08-06T08:55:06;47.60;37.50
69204;DHT22;56317;27.658;85.326;2022-08-06T08:57:34;49.30;37.30
69204;DHT22;56317;27.658;85.326;2022-08-06T09:00:03;50.40;36.50
69204;DHT22;56317;27.658;85.326;2022-08-06T09:02:31;50.60;35.40
69204;DHT22;56317;27.658;85.326;2022-08-06T09:04:59;52.10;34.30
69204;DHT22;56317;27.658;85.326;2022-08-06T09:07:28;52.70;34.00
69204;DHT22;56317;27.658;85.326;2022-08-06T09:09:59;53.70;33.70
69204;DHT22;56317;27.658;85.326;2022-08-06T09:12:26;54.50;32.50
69204;DHT22;56317;27.658;85.326;2022-08-06T09:14:54;55.00;32.50
69204;DHT22;56317;27.658;85.326;2022-08-06T09:17:21;54.70;31.90
69204;DHT22;56317;27.658;85.326;2022-08-06T09:19:50;53.50;32.90
69204;DHT22;56317;27.658;85.326;2022-08-06T09:22:17;53.00;32.90
69204;DHT22;56317;27.658;85.326;2022-08-06T09:24:44;52.70;32.90
69204;DHT22;56317;27.658;85.326;2022-08-06T09:27:16;52.80;33.20
69204;DHT22;56317;27.658;85.326;2022-08-06T09:29:51;53.30;32.80
69204;DHT22;56317;27.658;85.326;2022-08-06T09:32:41;52.80;32.80
69204;DHT22;56317;27.658;85.326;2022-08-06T09:35:23;54.10;32.20
69204;DHT22;56317;27.658;85.326;2022-08-06T09:38:00;54.40;31.80
69204;DHT22;56317;27.658;85.326;2022-08-06T09:40:28;54.50;31.80
69204;DHT22;56317;27.658;85.326;2022-08-06T09:42:55;54.60;31.90
69204;DHT22;56317;27.658;85.326;2022-08-06T09:45:24;54.10;32.10
69204;DHT22;56317;27.658;85.326;2022-08-06T09:48:06;53.90;31.70
69204;DHT22;56317;27.658;85.326;2022-08-06T09:50:42;52.00;32.20
69204;DHT22;56317;27.658;85.326;2022-08-06T09:53:11;49.50;33.70
69204;DHT22;56317;27.658;85.326;2022-08-06T09:55:38;46.20;36.90
69204;DHT22;56317;27.658;85.326;2022-08-06T09:58:06;44.80;39.10
69204;DHT22;56317;27.658;85.326;2022-08-06T10:00:35;43.60;40.50
69204;DHT22;56317;27.658;85.326;2022-08-06T10:03:05;43.30;40.90
69204;DHT22;56317;27.658;85.326;2022-08-06T10:05:33;41.90;42.10
69204;DHT22;56317;27.658;85.326;2022-08-06T10:10:42;37.80;48.10
69204;DHT22;56317;27.658;85.326;2022-08-06T10:13:15;37.00;49.30
69204;DHT22;56317;27.658;85.326;2022-08-06T10:15:43;36.00;50.80
69204;DHT22;56317;27.658;85.326;2022-08-06T10:18:56;35.10;53.00
69204;DHT22;56317;27.658;85.326;2022-08-06T10:21:25;34.00;54.80
69204;DHT22;56317;27.658;85.326;2022-08-06T10:23:52;32.80;57.40
69204;DHT22;56317;27.658;85.326;2022-08-06T10:26:29;31.80;59.70
69204;DHT22;56317;27.658;85.326;2022-08-06T10:29:02;31.10;59.70
69204;DHT22;56317;27.658;85.326;2022-08-06T10:31:32;30.40;62.10
69204;DHT22;56317;27.658;85.326;2022-08-06T10:34:00;30.00;64.10
69204;DHT22;56317;27.658;85.326;2022-08-06T10:36:35;29.70;65.50
69204;DHT22;56317;27.658;85.326;2022-08-06T10:39:03;29.40;66.40
69204;DHT22;56317;27.658;85.326;2022-08-06T10:41:31;29.20;67.50
69204;DHT22;56317;27.658;85.326;2022-08-06T10:44:02;29.00;68.10
69204;DHT22;56317;27.658;85.326;2022-08-06T10:46:31;28.80;68.20
69204;DHT22;56317;27.658;85.326;2022-08-06T10:48:59;28.60;68.60
69204;DHT22;56317;27.658;85.326;2022-08-06T10:51:27;28.40;69.30
69204;DHT22;56317;27.658;85.326;2022-08-06T10:53:54;28.10;69.90
69204;DHT22;56317;27.658;85.326;2022-08-06T10:56:22;27.90;70.30
69204;DHT22;56317;27.658;85.326;2022-08-06T10:58:51;27.70;71.00
69204;DHT22;56317;27.658;85.326;2022-08-06T11:15:05;26.90;72.90
69204;DHT22;56317;27.658;85.326;2022-08-06T11:18:03;26.80;73.90
69204;DHT22;56317;27.658;85.326;2022-08-06T11:23:27;26.70;75.70
69204;DHT22;56317;27.658;85.326;2022-08-06T11:25:59;26.70;76.90
69204;DHT22;56317;27.658;85.326;2022-08-06T11:30:59;27.00;77.50
69204;DHT22;56317;27.658;85.326;2022-08-06T11:41:24;27.30;77.30
69204;DHT22;56317;27.658;85.326;2022-08-06T11:46:31;26.80;79.70
69204;DHT22;56317;27.658;85.326;2022-08-06T11:51:54;26.40;81.30
69204;DHT22;56317;27.658;85.326;2022-08-06T11:54:31;26.30;81.20
69204;DHT22;56317;27.658;85.326;2022-08-06T12:02:14;25.90;82.70
69204;DHT22;56317;27.658;85.326;2022-08-06T12:04:45;25.80;82.80
69204;DHT22;56317;27.658;85.326;2022-08-06T12:07:20;25.60;82.90
69204;DHT22;56317;27.658;85.326;2022-08-06T12:10:00;25.60;82.70
69204;DHT22;56317;27.658;85.326;2022-08-06T12:15:00;25.30;84.00
69204;DHT22;56317;27.658;85.326;2022-08-06T12:17:29;25.30;85.00
69204;DHT22;56317;27.658;85.326;2022-08-06T12:19:59;25.20;85.30
69204;DHT22;56317;27.658;85.326;2022-08-06T12:22:34;25.10;84.90
69204;DHT22;56317;27.658;85.326;2022-08-06T12:25:07;25.00;85.40
69204;DHT22;56317;27.658;85.326;2022-08-06T12:27:37;25.00;86.10
69204;DHT22;56317;27.658;85.326;2022-08-06T12:30:05;24.90;87.00
69204;DHT22;56317;27.658;85.326;2022-08-06T12:32:34;24.90;87.40
69204;DHT22;56317;27.658;85.326;2022-08-06T12:35:10;24.80;87.70
69204;DHT22;56317;27.658;85.326;2022-08-06T12:37:44;24.80;88.20
69204;DHT22;56317;27.658;85.326;2022-08-06T12:40:15;24.70;88.80
69204;DHT22;56317;27.658;85.326;2022-08-06T12:45:32;24.60;90.10
69204;DHT22;56317;27.658;85.326;2022-08-06T12:48:02;24.50;90.40
69204;DHT22;56317;27.658;85.326;2022-08-06T12:50:32;24.50;90.50
69204;DHT22;56317;27.658;85.326;2022-08-06T12:53:10;24.50;90.60
69204;DHT22;56317;27.658;85.326;2022-08-06T12:55:50;24.40;90.50
69204;DHT22;56317;27.658;85.326;2022-08-06T12:58:20;24.40;90.70
69204;DHT22;56317;27.658;85.326;2022-08-06T13:00:52;24.40;90.70
69204;DHT22;56317;27.658;85.326;2022-08-06T13:03:23;24.40;90.70
69204;DHT22;56317;27.658;85.326;2022-08-06T13:05:54;24.30;90.80
69204;DHT22;56317;27.658;85.326;2022-08-06T13:08:21;24.30;90.50
69204;DHT22;56317;27.658;85.326;2022-08-06T13:10:54;24.30;90.80
69204;DHT22;56317;27.658;85.326;2022-08-06T13:16:14;24.20;91.00
69204;DHT22;56317;27.658;85.326;2022-08-06T13:19:10;24.10;91.40
69204;DHT22;56317;27.658;85.326;2022-08-06T13:21:39;24.20;91.40
69204;DHT22;56317;27.658;85.326;2022-08-06T13:24:07;24.10;91.80
69204;DHT22;56317;27.658;85.326;2022-08-06T13:26:48;24.10;91.80
69204;DHT22;56317;27.658;85.326;2022-08-06T13:29:24;24.10;91.80
69204;DHT22;56317;27.658;85.326;2022-08-06T13:32:09;24.10;92.20
69204;DHT22;56317;27.658;85.326;2022-08-06T13:34:48;24.00;92.60
69204;DHT22;56317;27.658;85.326;2022-08-06T13:37:47;24.10;93.40
69204;DHT22;56317;27.658;85.326;2022-08-06T13:40:16;24.00;93.00
69204;DHT22;56317;27.658;85.326;2022-08-06T13:42:54;24.00;93.10
69204;DHT22;56317;27.658;85.326;2022-08-06T13:45:24;23.90;93.20
69204;DHT22;56317;27.658;85.326;2022-08-06T13:48:12;23.90;93.60
69204;DHT22;56317;27.658;85.326;2022-08-06T13:50:41;23.80;93.90
69204;DHT22;56317;27.658;85.326;2022-08-06T13:53:11;23.80;94.60
69204;DHT22;56317;27.658;85.326;2022-08-06T13:55:43;23.70;95.30
69204;DHT22;56317;27.658;85.326;2022-08-06T13:58:10;23.70;95.00
69204;DHT22;56317;27.658;85.326;2022-08-06T14:00:37;23.70;95.10
69204;DHT22;56317;27.658;85.326;2022-08-06T14:03:05;23.70;96.00
69204;DHT22;56317;27.658;85.326;2022-08-06T14:05:32;23.60;99.20
69204;DHT22;56317;27.658;85.326;2022-08-06T14:07:59;23.60;99.90
69204;DHT22;56317;27.658;85.326;2022-08-06T14:10:27;23.60;99.90
69204;DHT22;56317;27.658;85.326;2022-08-06T14:12:54;23.50;99.90
69204;DHT22;56317;27.658;85.326;2022-08-06T14:15:39;23.50;99.90
69204;DHT22;56317;27.658;85.326;2022-08-06T14:18:09;23.40;99.90
69204;DHT22;56317;27.658;85.326;2022-08-06T14:20:37;23.40;99.90
69204;DHT22;56317;27.658;85.326;2022-08-06T14:23:04;23.30;99.90
69204;DHT22;56317;27.658;85.326;2022-08-06T14:25:32;23.30;99.90
69204;DHT22;56317;27.658;85.326;2022-08-06T14:28:04;23.20;99.90
69204;DHT22;56317;27.658;85.326;2022-08-06T14:30:32;23.20;99.90
69204;DHT22;56317;27.658;85.326;2022-08-06T14:33:08;23.10;99.90
69204;DHT22;56317;27.658;85.326;2022-08-06T14:35:36;23.10;99.90
69204;DHT22;56317;27.658;85.326;2022-08-06T14:38:05;23.00;99.90
69204;DHT22;56317;27.658;85.326;2022-08-06T14:40:32;23.00;99.90
69204;DHT22;56317;27.658;85.326;2022-08-06T14:43:17;23.00;99.90
69204;DHT22;56317;27.658;85.326;2022-08-06T14:46:03;23.10;99.90
69204;DHT22;56317;27.658;85.326;2022-08-06T14:48:30;23.10;99.90
69204;DHT22;56317;27.658;85.326;2022-08-06T14:51:19;23.00;99.90
69204;DHT22;56317;27.658;85.326;2022-08-06T14:53:55;23.00;99.90
69204;DHT22;56317;27.658;85.326;2022-08-06T14:56:22;23.00;99.90
69204;DHT22;56317;27.658;85.326;2022-08-06T14:58:49;23.00;99.90
69204;DHT22;56317;27.658;85.326;2022-08-06T15:01:16;23.10;99.90
69204;DHT22;56317;27.658;85.326;2022-08-06T15:03:43;23.00;99.90
69204;DHT22;56317;27.658;85.326;2022-08-06T15:06:10;23.10;99.90
69204;DHT22;56317;27.658;85.326;2022-08-06T15:08:38;23.10;99.90
69204;DHT22;56317;27.658;85.326;2022-08-06T15:11:05;23.10;99.90
69204;DHT22;56317;27.658;85.326;2022-08-06T15:13:33;23.10;99.90
69204;DHT22;56317;27.658;85.326;2022-08-06T15:16:04;23.10;99.90
69204;DHT22;56317;27.658;85.326;2022-08-06T15:18:32;23.10;99.90
69204;DHT22;56317;27.658;85.326;2022-08-06T15:20:59;23.10;99.90
69204;DHT22;56317;27.658;85.326;2022-08-06T15:23:26;23.10;99.90
69204;DHT22;56317;27.658;85.326;2022-08-06T15:25:53;23.10;99.90
69204;DHT22;56317;27.658;85.326;2022-08-06T15:28:21;23.10;99.90
69204;DHT22;56317;27.658;85.326;2022-08-06T15:30:48;23.00;99.90
69204;DHT22;56317;27.658;85.326;2022-08-06T15:33:15;23.00;99.90
69204;DHT22;56317;27.658;85.326;2022-08-06T15:35:42;23.00;99.90
69204;DHT22;56317;27.658;85.326;2022-08-06T15:38:10;23.00;99.90
69204;DHT22;56317;27.658;85.326;2022-08-06T15:40:39;22.90;99.90
69204;DHT22;56317;27.658;85.326;2022-08-06T15:43:06;22.90;99.90
69204;DHT22;56317;27.658;85.326;2022-08-06T15:45:33;22.80;99.90
69204;DHT22;56317;27.658;85.326;2022-08-06T15:48:00;22.80;99.90
69204;DHT22;56317;27.658;85.326;2022-08-06T15:50:27;22.80;99.90
69204;DHT22;56317;27.658;85.326;2022-08-06T15:52:54;22.80;99.90
69204;DHT22;56317;27.658;85.326;2022-08-06T15:55:22;22.80;99.90
69204;DHT22;56317;27.658;85.326;2022-08-06T15:57:49;22.80;99.90
69204;DHT22;56317;27.658;85.326;2022-08-06T16:00:16;22.80;99.90
69204;DHT22;56317;27.658;85.326;2022-08-06T16:02:44;22.80;99.90
69204;DHT22;56317;27.658;85.326;2022-08-06T16:05:11;22.80;99.90
69204;DHT22;56317;27.658;85.326;2022-08-06T16:07:38;22.80;99.90
69204;DHT22;56317;27.658;85.326;2022-08-06T16:10:06;22.80;99.90
69204;DHT22;56317;27.658;85.326;2022-08-06T16:12:33;22.80;99.90
69204;DHT22;56317;27.658;85.326;2022-08-06T16:15:00;22.80;99.90
69204;DHT22;56317;27.658;85.326;2022-08-06T16:17:28;22.80;99.90
69204;DHT22;56317;27.658;85.326;2022-08-06T16:19:55;22.80;99.90
69204;DHT22;56317;27.658;85.326;2022-08-06T16:22:22;22.80;99.90
69204;DHT22;56317;27.658;85.326;2022-08-06T16:24:49;22.80;99.90
69204;DHT22;56317;27.658;85.326;2022-08-06T16:27:17;22.80;99.90
69204;DHT22;56317;27.658;85.326;2022-08-06T16:29:45;22.70;99.90
69204;DHT22;56317;27.658;85.326;2022-08-06T16:32:13;22.80;99.90
69204;DHT22;56317;27.658;85.326;2022-08-06T16:34:41;22.70;99.90
69204;DHT22;56317;27.658;85.326;2022-08-06T16:37:09;22.70;99.90
69204;DHT22;56317;27.658;85.326;2022-08-06T16:39:37;22.70;99.90
69204;DHT22;56317;27.658;85.326;2022-08-06T16:42:05;22.70;99.90
69204;DHT22;56317;27.658;85.326;2022-08-06T16:44:35;22.70;99.90
69204;DHT22;56317;27.658;85.326;2022-08-06T16:47:03;22.70;99.90
69204;DHT22;56317;27.658;85.326;2022-08-06T16:49:31;22.70;99.90
69204;DHT22;56317;27.658;85.326;2022-08-06T16:51:58;22.60;99.90
69204;DHT22;56317;27.658;85.326;2022-08-06T16:54:26;22.60;99.90
69204;DHT22;56317;27.658;85.326;2022-08-06T16:56:53;22.60;99.90
69204;DHT22;56317;27.658;85.326;2022-08-06T16:59:20;22.60;99.90
69204;DHT22;56317;27.658;85.326;2022-08-06T17:01:48;22.60;99.90
69204;DHT22;56317;27.658;85.326;2022-08-06T17:04:35;22.60;99.90